Seven Hills, Ohio
Current Conditions -  °F | °C
As of 5:53 PM on Saturday 22 Nov 2014 (Local Time) from KBKL Reporting Station
Light Rain Light Rain  
Wind Chill: 41°   Ceiling: 3700
Heat Index: 47°   Visibility: 9mi
Dew Point: 38°   Wind: 15mph
Humidity: 71%   Direction: 180°S
Pressure: 30.03"   Gusts: NA
Location:  41.3833°N, 81.6531°W
Report Text: KBKL 222253Z 18013KT 9SM -RA OVC037 08/03 A3003 RMK AO2 RAB31 SLP173 P0001 T00830033
Loading
Personal Weather Stations






























Interactive Weather Map New forecast layout! Learn more

10-Day Weather Forecast

Advertisements
Track Severe Weather on mobile